Upton, Pennsylvania
Current Conditions -  °F | °C
As of 9:53 PM on Thursday 18 Dec 2014 (Local Time) from KHGR Reporting Station
Broken Clouds Broken Clouds  
Wind Chill: 27°   Ceiling: 12000
Heat Index: 33°   Visibility: 10mi
Dew Point: 22°   Wind: 7mph
Humidity: 64%   Direction: 280°W
Pressure: 30.09"   Gusts: NA
Location:  39.7874°N, 77.754°W
Report Text: KHGR 190253Z 28006KT 10SM SCT029 BKN120 01/M06 A3009 RMK AO2 SLP207 T00061056 58003
Loading
Personal Weather Stations






























Interactive Weather Map New forecast layout! Learn more

10-Day Weather Forecast

Advertisements
Track Severe Weather on mobile